Lamar University, Texas
Current Conditions -  °F | °C
As of 6:55 PM on Wednesday 17 Dec 2014 (Local Time) from KBMT Reporting Station
Clear Clear  
Wind Chill: 56°   Ceiling: Unl
Heat Index: 56°   Visibility: 10mi
Dew Point: 47°   Wind: 9mph
Humidity: 72%   Direction: 110°ESE
Pressure: 30.12"   Gusts: NA
Location:  30.0543°N, 94.1762°W
Report Text: KBMT 180055Z AUTO 11008KT 10SM CLR 14/09 A3012 RMK AO2 T01350085
Loading
Personal Weather Stations






























Interactive Weather Map New forecast layout! Learn more

10-Day Weather Forecast

Advertisements
Track Severe Weather on mobile